Time;durP1;ratioP1;P1;durP2;ratioP2;P2;SDS_P1;SDS_P2;PMS_P1;PMS_P2;Temp;Humidity;BMP_temperature;BMP_pressure;BME280_temperature;BME280_humidity;BME280_pressure;Samples;Min_cycle;Max_cycle;Signal;HPM_P1;HPM_P2
2022/05/03 00:00:52;;;;;;;12.50;8.90;;;6.10;99.90;;;;;;4961733;28;88387;-37
2022/05/03 00:03:27;;;;;;;8.32;7.50;;;6.10;99.90;;;;;;4962507;28;90534;-44
2022/05/03 00:06:17;;;;;;;9.88;7.35;;;6.10;99.90;;;;;;4961751;28;89257;-43
2022/05/03 00:08:49;;;;;;;10.70;7.93;;;6.10;99.90;;;;;;4962149;28;87807;-42
2022/05/03 00:11:26;;;;;;;9.32;8.43;;;6.10;99.90;;;;;;4962301;28;88382;-41
2022/05/03 00:14:00;;;;;;;11.73;8.80;;;6.00;99.90;;;;;;4961734;28;90267;-45
2022/05/03 00:16:26;;;;;;;10.23;9.00;;;6.00;99.90;;;;;;4961247;28;89063;-43
2022/05/03 00:18:52;;;;;;;9.30;8.13;;;5.90;99.90;;;;;;4962043;28;87648;-42
2022/05/03 00:21:19;;;;;;;10.57;8.40;;;5.90;99.90;;;;;;4961691;28;88715;-42
2022/05/03 00:23:45;;;;;;;14.23;9.05;;;5.90;99.90;;;;;;4961669;28;89960;-41
2022/05/03 00:26:11;;;;;;;11.85;9.95;;;5.90;99.90;;;;;;4962009;28;88218;-42
2022/05/03 00:28:38;;;;;;;11.60;10.05;;;5.90;99.90;;;;;;4961474;28;88422;-43
2022/05/03 00:31:05;;;;;;;11.75;9.80;;;5.80;99.90;;;;;;4960793;28;89614;-43
2022/05/03 00:33:34;;;;;;;11.32;9.45;;;5.90;99.90;;;;;;4962440;28;90359;-43
2022/05/03 00:36:00;;;;;;;11.20;10.07;;;5.90;99.90;;;;;;4961864;28;89667;-39
2022/05/03 00:38:26;;;;;;;13.35;9.95;;;5.80;99.90;;;;;;4990481;22;88853;-34
2022/05/03 00:40:56;;;;;;;10.48;9.07;;;5.90;99.90;;;;;;4960286;28;89845;-33
2022/05/03 00:43:33;;;;;;;12.75;10.25;;;5.80;99.90;;;;;;4961040;28;90098;-33
2022/05/03 00:46:05;;;;;;;13.52;9.70;;;5.80;99.90;;;;;;4960370;28;89578;-33
2022/05/03 00:49:03;;;;;;;10.20;9.20;;;5.80;99.90;;;;;;4961120;28;88399;-36
2022/05/03 00:51:47;;;;;;;10.07;9.13;;;5.80;99.90;;;;;;4961631;28;89097;-35
2022/05/03 00:54:22;;;;;;;12.75;10.07;;;5.80;99.90;;;;;;4961907;28;90077;-35
2022/05/03 00:57:22;;;;;;;10.73;9.02;;;5.70;99.90;;;;;;4960472;28;89876;-34
2022/05/03 00:59:59;;;;;;;9.80;8.75;;;5.60;99.90;;;;;;4961153;28;88262;-33
2022/05/03 01:03:00;;;;;;;10.13;8.95;;;5.60;99.90;;;;;;4961205;28;89047;-33
2022/05/03 01:05:45;;;;;;;13.77;10.18;;;5.60;99.90;;;;;;4960880;28;92144;-36
2022/05/03 01:08:29;;;;;;;11.73;10.60;;;5.50;99.90;;;;;;4960201;28;90466;-34
2022/05/03 01:11:00;;;;;;;12.18;9.73;;;5.50;99.90;;;;;;4960538;28;89095;-37
2022/05/03 01:13:41;;;;;;;12.88;10.88;;;5.50;99.90;;;;;;4961413;28;87972;-36
2022/05/03 01:16:33;;;;;;;13.85;10.13;;;5.50;99.90;;;;;;4958674;28;90296;-34
2022/05/03 01:19:23;;;;;;;11.68;10.48;;;5.50;99.90;;;;;;4956841;28;90043;-34
2022/05/03 01:22:05;;;;;;;11.57;10.38;;;5.50;99.90;;;;;;4960804;28;89999;-33
2022/05/03 01:24:44;;;;;;;13.00;10.40;;;5.50;99.90;;;;;;4960700;28;90569;-33
2022/05/03 01:27:50;;;;;;;10.68;9.20;;;5.40;99.90;;;;;;4960065;28;90758;-34
2022/05/03 01:30:16;;;;;;;13.60;9.95;;;5.40;99.90;;;;;;4960972;28;90069;-37
2022/05/03 01:32:44;;;;;;;11.88;10.23;;;5.30;99.90;;;;;;4961204;28;88811;-34
2022/05/03 01:35:12;;;;;;;11.95;9.10;;;5.30;99.90;;;;;;4960014;28;88974;-34
2022/05/03 01:38:01;;;;;;;12.48;9.30;;;5.30;99.90;;;;;;4959971;28;90278;-34
2022/05/03 01:40:49;;;;;;;10.02;9.02;;;5.30;99.90;;;;;;4960107;28;90007;-34
2022/05/03 01:43:51;;;;;;;11.77;9.75;;;5.20;99.90;;;;;;4956694;28;89670;-37
2022/05/03 01:46:23;;;;;;;10.95;9.85;;;5.30;99.90;;;;;;4961383;28;87587;-35
2022/05/03 01:51:53;;;;;;;16.38;10.48;;;5.30;99.90;;;;;;4959943;28;89668;-33
2022/05/03 01:54:19;;;;;;;13.98;11.85;;;5.30;99.90;;;;;;4959856;28;88979;-32
2022/05/03 01:57:03;;;;;;;15.10;10.80;;;5.30;99.90;;;;;;4960312;28;88610;-36
2022/05/03 01:59:37;;;;;;;13.50;12.20;;;5.30;99.90;;;;;;4961326;28;88858;-36
2022/05/03 02:02:12;;;;;;;13.05;11.65;;;5.30;99.90;;;;;;4963260;28;90181;-36
2022/05/03 02:05:00;;;;;;;16.42;12.05;;;5.30;99.90;;;;;;4962638;28;87904;-33
2022/05/03 02:07:46;;;;;;;15.60;13.85;;;5.30;99.90;;;;;;4963006;28;87611;-36
2022/05/03 02:10:25;;;;;;;15.43;12.52;;;5.30;99.90;;;;;;4962827;28;90383;-34
2022/05/03 02:12:57;;;;;;;14.38;12.88;;;5.30;99.90;;;;;;4962448;28;89343;-32
2022/05/03 02:15:44;;;;;;;15.98;13.68;;;5.30;99.90;;;;;;4963161;28;87563;-37
2022/05/03 02:18:26;;;;;;;17.43;12.77;;;5.30;99.90;;;;;;4963409;28;88177;-36
2022/05/03 02:21:08;;;;;;;16.20;14.38;;;5.30;99.90;;;;;;4963365;28;89737;-33
2022/05/03 02:23:56;;;;;;;17.92;13.57;;;5.30;99.90;;;;;;4963122;28;88031;-36
2022/05/03 02:26:28;;;;;;;;;;;5.30;99.90;;;;;;4963325;28;87570;-33
2022/05/03 02:28:56;;;;;;;15.75;12.77;;;5.30;99.90;;;;;;4965048;28;90429;-34
2022/05/03 02:31:48;;;;;;;18.42;13.98;;;5.30;99.90;;;;;;4962799;28;90268;-37
2022/05/03 02:34:18;;;;;;;15.45;13.48;;;5.30;99.90;;;;;;4943148;28;89506;-33
2022/05/03 02:36:55;;;;;;;13.07;11.43;;;5.30;99.90;;;;;;4942682;28;88650;-34
2022/05/03 02:39:27;;;;;;;14.52;12.10;;;5.30;99.90;;;;;;4942389;28;88953;-34
2022/05/03 02:41:57;;;;;;;14.38;12.85;;;5.30;99.90;;;;;;4943210;28;90152;-33
2022/05/03 02:44:25;;;;;;;16.70;12.30;;;5.30;99.90;;;;;;4943028;28;91192;-35
2022/05/03 02:47:09;;;;;;;16.67;12.73;;;5.30;99.90;;;;;;4942877;28;89747;-34
2022/05/03 02:49:37;;;;;;;14.07;12.65;;;5.30;99.90;;;;;;4943118;28;88615;-37
2022/05/03 02:52:13;;;;;;;13.98;12.57;;;5.20;99.90;;;;;;4942908;28;90399;-34
2022/05/03 02:55:25;;;;;;;13.60;12.15;;;5.20;99.90;;;;;;4942680;28;89608;-33
2022/05/03 02:58:02;;;;;;;18.20;12.48;;;5.20;99.90;;;;;;4943498;28;89438;-36
2022/05/03 03:03:47;;;;;;;16.45;13.00;;;5.20;99.90;;;;;;4943385;28;90241;-33
2022/05/03 03:06:21;;;;;;;16.48;13.10;;;5.10;99.90;;;;;;4942824;28;89666;-34
2022/05/03 03:08:49;;;;;;;17.27;14.80;;;5.10;99.90;;;;;;4942944;28;89523;-37
2022/05/03 03:11:37;;;;;;;19.42;16.92;;;5.10;99.90;;;;;;4942912;28;89413;-33
2022/05/03 03:14:14;;;;;;;20.67;15.43;;;5.20;99.90;;;;;;4942600;28;89086;-37
2022/05/03 03:16:51;;;;;;;18.13;16.08;;;5.20;99.90;;;;;;4942466;28;89670;-34
2022/05/03 03:19:47;;;;;;;18.25;16.00;;;5.20;99.90;;;;;;4942528;28;88513;-33
2022/05/03 03:22:14;;;;;;;22.38;16.75;;;5.20;99.90;;;;;;4942603;28;88011;-36
2022/05/03 03:24:41;;;;;;;20.27;16.58;;;5.20;99.90;;;;;;4942884;28;90294;-33
2022/05/03 03:27:10;;;;;;;20.23;14.70;;;5.20;99.90;;;;;;4957454;28;89285;-33
2022/05/03 03:29:38;;;;;;;24.25;16.58;;;5.10;99.90;;;;;;4942904;28;88062;-34
2022/05/03 03:32:06;;;;;;;16.63;14.90;;;5.10;99.90;;;;;;4942477;28;89201;-34
2022/05/03 03:34:32;;;;;;;19.35;14.95;;;5.10;99.90;;;;;;4942372;28;89982;-35
2022/05/03 03:37:04;;;;;;;18.67;14.90;;;5.00;99.90;;;;;;4941671;28;89923;-37
2022/05/03 03:39:31;;;;;;;19.80;14.02;;;5.10;99.90;;;;;;4941304;28;87751;-33
2022/05/03 03:42:05;;;;;;;16.67;13.68;;;5.00;99.90;;;;;;4942556;28;89691;-33
2022/05/03 03:44:32;;;;;;;15.85;13.70;;;4.90;99.90;;;;;;4942276;28;91658;-33
2022/05/03 03:47:02;;;;;;;15.57;13.82;;;4.90;99.90;;;;;;4941662;28;89268;-38
2022/05/03 03:49:31;;;;;;;14.45;12.95;;;4.90;99.90;;;;;;4941524;28;88155;-34
2022/05/03 03:52:00;;;;;;;16.52;14.00;;;4.80;99.90;;;;;;4942096;28;90216;-33
2022/05/03 03:54:26;;;;;;;16.95;14.25;;;4.80;99.90;;;;;;4941551;28;90052;-36
2022/05/03 03:56:52;;;;;;;20.40;14.75;;;4.70;99.90;;;;;;4942555;28;90635;-32
2022/05/03 03:59:18;;;;;;;15.02;13.48;;;4.70;99.90;;;;;;4941431;28;88316;-35
2022/05/03 04:01:45;;;;;;;17.95;14.35;;;4.70;99.90;;;;;;4941942;28;89937;-32
2022/05/03 04:04:11;;;;;;;20.90;16.80;;;4.70;99.90;;;;;;4941904;28;91643;-34
2022/05/03 04:06:37;;;;;;;16.92;15.18;;;4.70;99.90;;;;;;4941265;28;89649;-32
2022/05/03 04:09:04;;;;;;;16.45;14.48;;;4.70;99.90;;;;;;4942280;28;89564;-34
2022/05/03 04:11:42;;;;;;;15.48;13.80;;;4.80;99.90;;;;;;4941982;28;89544;-36
2022/05/03 04:14:08;;;;;;;;;;;4.80;99.90;;;;;;4942368;28;89903;-35
2022/05/03 04:16:33;;;;;;;28.73;15.02;;;4.90;99.90;;;;;;4943636;28;89512;-35
2022/05/03 04:18:59;;;;;;;16.50;14.55;;;5.00;99.90;;;;;;4941910;28;88410;-33
2022/05/03 04:21:25;;;;;;;16.50;14.40;;;5.00;99.90;;;;;;4940503;28;89849;-35
2022/05/03 04:23:51;;;;;;;19.52;14.88;;;5.10;99.90;;;;;;4941689;28;90280;-34
2022/05/03 04:26:17;;;;;;;16.92;15.02;;;5.00;99.90;;;;;;4940934;28;89444;-37
2022/05/03 04:28:42;;;;;;;16.02;14.32;;;5.00;99.90;;;;;;4941477;28;89759;-35
2022/05/03 04:31:08;;;;;;;17.80;15.13;;;5.00;99.90;;;;;;4941871;28;88710;-32
2022/05/03 04:33:34;;;;;;;19.27;15.95;;;5.10;99.90;;;;;;4941585;28;90826;-35
2022/05/03 04:35:59;;;;;;;16.90;15.13;;;5.20;99.90;;;;;;4941401;28;90354;-34
2022/05/03 04:38:25;;;;;;;17.08;14.27;;;5.20;99.90;;;;;;4940988;28;89375;-37
2022/05/03 04:40:58;;;;;;;18.15;15.38;;;5.30;99.90;;;;;;4941331;28;88252;-35
2022/05/03 04:43:23;;;;;;;15.48;13.63;;;5.30;99.90;;;;;;4941033;28;90222;-34
2022/05/03 04:45:50;;;;;;;16.88;15.10;;;5.50;99.90;;;;;;4941559;28;88634;-35
2022/05/03 04:48:16;;;;;;;17.27;15.48;;;5.60;99.90;;;;;;4941553;28;88806;-32
2022/05/03 04:50:41;;;;;;;19.27;16.83;;;5.80;99.90;;;;;;4940452;28;88690;-36
2022/05/03 04:53:07;;;;;;;19.30;15.02;;;6.00;99.90;;;;;;4941864;28;89030;-33
2022/05/03 04:55:37;;;;;;;22.65;16.50;;;6.20;99.90;;;;;;4941083;28;89618;-33
2022/05/03 04:58:02;;;;;;;18.77;14.73;;;6.30;99.90;;;;;;4941137;28;88094;-33
2022/05/03 05:00:28;;;;;;;15.48;13.88;;;6.50;99.90;;;;;;4940958;28;89379;-34
2022/05/03 05:02:53;;;;;;;21.38;17.42;;;6.90;99.90;;;;;;4940195;28;90303;-37
2022/05/03 05:05:19;;;;;;;17.83;16.08;;;7.10;99.90;;;;;;4951484;28;89284;-34
2022/05/03 05:07:45;;;;;;;16.90;15.10;;;7.10;99.90;;;;;;4959982;28;87979;-33
2022/05/03 05:10:27;;;;;;;20.98;16.10;;;7.00;99.90;;;;;;4960372;28;89910;-34
2022/05/03 05:12:54;;;;;;;22.15;16.70;;;7.00;99.90;;;;;;4958724;28;89048;-33
2022/05/03 05:15:23;;;;;;;19.17;16.13;;;6.80;99.90;;;;;;4959102;28;89819;-33
2022/05/03 05:17:58;;;;;;;17.88;15.75;;;6.90;99.90;;;;;;4957760;28;89707;-35
2022/05/03 05:20:27;;;;;;;20.08;18.00;;;7.10;99.90;;;;;;4860200;28;88628;-34
2022/05/03 05:22:53;;;;;;;21.55;19.25;;;7.20;99.90;;;;;;4928610;28;90788;-33
2022/05/03 05:25:18;;;;;;;20.23;18.23;;;7.30;99.90;;;;;;4959581;28;89701;-33
2022/05/03 05:27:44;;;;;;;23.48;18.73;;;7.40;99.90;;;;;;4960211;28;88219;-34
2022/05/03 05:30:10;;;;;;;23.17;20.75;;;7.50;99.90;;;;;;4960103;28;90119;-33
2022/05/03 05:32:38;;;;;;;28.23;23.48;;;7.60;99.90;;;;;;4959832;28;90410;-35
2022/05/03 05:35:04;;;;;;;28.42;23.77;;;7.80;99.90;;;;;;4863967;28;89613;-33
2022/05/03 05:37:33;;;;;;;24.73;21.75;;;7.90;99.90;;;;;;4889292;28;89447;-35
2022/05/03 05:39:59;;;;;;;32.17;24.52;;;8.20;99.90;;;;;;4934382;28;87759;-33
2022/05/03 05:42:28;;;;;;;70.85;28.45;;;8.30;99.90;;;;;;4960070;28;90490;-33
2022/05/03 05:44:53;;;;;;;28.60;21.90;;;8.30;99.90;;;;;;4960267;28;89911;-36
2022/05/03 05:47:19;;;;;;;28.27;20.77;;;8.40;99.90;;;;;;4959654;28;89944;-36
2022/05/03 05:49:45;;;;;;;23.00;20.38;;;8.60;99.90;;;;;;4959856;28;88144;-35
2022/05/03 05:54:55;;;;;;;28.02;19.45;;;8.90;99.90;;;;;;4959676;28;89830;-32
2022/05/03 05:57:21;;;;;;;26.05;20.73;;;9.00;99.90;;;;;;4960390;28;87936;-36
2022/05/03 05:59:47;;;;;;;24.63;20.95;;;9.10;99.90;;;;;;4955643;28;88208;-34
2022/05/03 06:02:14;;;;;;;26.25;22.40;;;9.10;99.90;;;;;;4950270;28;90032;-37
2022/05/03 06:04:40;;;;;;;27.00;23.45;;;9.30;99.90;;;;;;4957262;28;88140;-34
2022/05/03 06:07:05;;;;;;;28.00;24.73;;;9.40;99.90;;;;;;4957384;28;89762;-36
2022/05/03 06:09:32;;;;;;;28.98;25.70;;;9.70;99.90;;;;;;4957944;28;88737;-34
2022/05/03 06:11:58;;;;;;;31.58;25.70;;;9.70;99.90;;;;;;4957560;28;91678;-34
2022/05/03 06:14:24;;;;;;;24.95;22.00;;;9.80;99.90;;;;;;4957553;28;90185;-33
2022/05/03 06:16:55;;;;;;;36.17;28.40;;;9.80;99.90;;;;;;4956757;28;87601;-37
2022/05/03 06:19:21;;;;;;;31.45;28.10;;;9.80;99.90;;;;;;4957931;28;88673;-35
2022/05/03 06:21:47;;;;;;;28.05;24.30;;;9.90;99.90;;;;;;4957025;28;90346;-36
2022/05/03 06:24:13;;;;;;;35.95;27.38;;;9.90;99.90;;;;;;4957356;28;89865;-33
2022/05/03 06:26:39;;;;;;;31.80;27.20;;;9.90;99.90;;;;;;4957853;28;89839;-33
2022/05/03 06:29:08;;;;;;;41.65;33.35;;;10.00;99.90;;;;;;4957059;28;88872;-35
2022/05/03 06:31:35;;;;;;;94.05;35.72;;;10.00;99.90;;;;;;4957050;28;89294;-34
2022/05/03 06:34:01;;;;;;;48.97;34.72;;;10.00;99.90;;;;;;4957193;28;89805;-34
2022/05/03 06:36:27;;;;;;;40.08;33.60;;;10.10;99.90;;;;;;4957809;28;88385;-34
2022/05/03 06:38:52;;;;;;;44.83;33.08;;;10.10;99.90;;;;;;4956602;28;89472;-34
2022/05/03 06:41:18;;;;;;;45.08;37.47;;;10.10;99.90;;;;;;4957035;28;90457;-34
2022/05/03 06:43:44;;;;;;;53.00;40.03;;;10.30;99.90;;;;;;4956466;28;89892;-34
2022/05/03 06:46:10;;;;;;;49.17;36.78;;;10.30;99.90;;;;;;4959461;28;89774;-38
2022/05/03 06:48:36;;;;;;;47.10;38.15;;;10.40;99.90;;;;;;4960523;28;87517;-35
2022/05/03 06:51:01;;;;;;;44.40;35.13;;;10.60;99.90;;;;;;4959869;28;89961;-35
2022/05/03 06:53:27;;;;;;;41.20;33.45;;;10.70;99.90;;;;;;4960619;28;88957;-34
2022/05/03 06:55:52;;;;;;;42.45;35.05;;;10.70;99.90;;;;;;4960047;28;87957;-34
2022/05/03 06:58:18;;;;;;;45.65;37.80;;;10.80;99.90;;;;;;4960310;28;89803;-32
2022/05/03 07:00:44;;;;;;;47.20;37.42;;;10.90;99.90;;;;;;4959746;28;94350;-33
2022/05/03 07:03:09;;;;;;;43.83;34.63;;;11.00;99.90;;;;;;4959999;28;89696;-36
2022/05/03 07:05:35;;;;;;;45.13;33.70;;;11.00;99.90;;;;;;4960021;28;87552;-34
2022/05/03 07:08:00;;;;;;;40.53;32.15;;;10.90;99.90;;;;;;4959778;28;87667;-33
2022/05/03 07:10:26;;;;;;;49.00;34.22;;;11.10;99.90;;;;;;4960464;28;90580;-35
2022/05/03 07:12:52;;;;;;;44.72;35.13;;;11.20;99.90;;;;;;4959556;28;89619;-35
2022/05/03 07:15:21;;;;;;;53.15;36.22;;;11.20;99.90;;;;;;4959869;28;90645;-38
2022/05/03 07:23:16;;;;;;;56.10;38.53;;;11.10;99.90;;;;;;4960089;28;88449;-37
2022/05/03 07:25:44;;;;;;;54.05;37.40;;;11.30;99.90;;;;;;4959754;28;88843;-35
2022/05/03 07:28:10;;;;;;;;;;;11.50;99.90;;;;;;4959967;28;88666;-34
2022/05/03 07:30:36;;;;;;;62.17;44.08;;;11.50;99.90;;;;;;4960690;28;90314;-35
2022/05/03 07:33:02;;;;;;;58.33;41.92;;;11.40;99.90;;;;;;4959716;28;89472;-37
2022/05/03 07:35:28;;;;;;;59.65;42.70;;;11.40;99.90;;;;;;4959532;28;89834;-37
2022/05/03 07:37:54;;;;;;;59.67;39.60;;;11.40;99.90;;;;;;4959281;28;89169;-37
2022/05/03 07:40:20;;;;;;;62.63;41.28;;;11.50;99.90;;;;;;4959645;28;90256;-34
2022/05/03 07:42:46;;;;;;;58.95;41.20;;;11.50;99.90;;;;;;4958942;28;89532;-34
2022/05/03 07:45:12;;;;;;;53.88;38.72;;;11.30;99.90;;;;;;4959672;28;88475;-34
2022/05/03 07:47:38;;;;;;;62.00;39.65;;;11.30;99.90;;;;;;4959406;28;88931;-36
2022/05/03 07:50:04;;;;;;;57.97;37.90;;;11.20;99.90;;;;;;4959442;28;90641;-35
2022/05/03 07:52:30;;;;;;;59.55;42.65;;;11.30;99.90;;;;;;4959759;28;90584;-33
2022/05/03 07:54:56;;;;;;;54.10;39.15;;;11.20;99.90;;;;;;4959484;28;88752;-35
2022/05/03 07:57:22;;;;;;;53.22;38.08;;;11.10;99.90;;;;;;4959679;28;88428;-33
2022/05/03 07:59:48;;;;;;;52.58;36.20;;;11.00;99.90;;;;;;4959189;28;90533;-34
2022/05/03 08:02:13;;;;;;;48.50;36.25;;;11.00;99.90;;;;;;4959078;28;88613;-37
2022/05/03 08:04:39;;;;;;;41.58;33.78;;;10.90;99.90;;;;;;4958938;28;87625;-33
2022/05/03 08:07:05;;;;;;;45.25;34.90;;;10.80;99.90;;;;;;4959303;28;89104;-36
2022/05/03 08:09:31;;;;;;;37.90;29.63;;;10.70;99.90;;;;;;4959682;28;90435;-35
2022/05/03 08:11:57;;;;;;;39.92;32.60;;;10.70;99.90;;;;;;4958965;28;89740;-35
2022/05/03 08:14:22;;;;;;;42.80;30.98;;;10.70;99.90;;;;;;4959672;28;87601;-33
2022/05/03 08:16:48;;;;;;;35.08;29.30;;;10.60;99.90;;;;;;4959290;28;89280;-33
2022/05/03 08:19:14;;;;;;;34.58;27.75;;;10.50;99.90;;;;;;4958467;28;90168;-35
2022/05/03 08:21:39;;;;;;;39.80;24.85;;;10.50;99.90;;;;;;4959245;28;89725;-33
2022/05/03 08:24:06;;;;;;;28.08;22.77;;;10.50;99.90;;;;;;4958993;28;87929;-34
2022/05/03 08:26:33;;;;;;;23.25;16.83;;;10.40;99.90;;;;;;4959169;28;87640;-34
2022/05/03 08:29:00;;;;;;;28.25;16.65;;;10.50;99.90;;;;;;4959048;28;90568;-33
2022/05/03 08:31:25;;;;;;;16.73;14.93;;;10.40;99.90;;;;;;4958462;28;91468;-35
2022/05/03 08:33:51;;;;;;;22.67;13.70;;;10.50;99.90;;;;;;4958751;28;88176;-33
2022/05/03 08:36:17;;;;;;;18.98;12.50;;;10.50;99.90;;;;;;4959096;28;87575;-33
2022/05/03 08:44:12;;;;;;;15.02;8.82;;;10.60;99.90;;;;;;4959898;28;88435;-33
2022/05/03 08:46:39;;;;;;;15.27;8.25;;;10.60;99.90;;;;;;4959347;28;90114;-34
2022/05/03 08:49:07;;;;;;;10.98;7.38;;;10.60;99.90;;;;;;4959711;28;90299;-36
2022/05/03 08:51:33;;;;;;;8.45;6.88;;;10.60;99.90;;;;;;4959676;28;88814;-34
2022/05/03 08:54:00;;;;;;;10.32;7.50;;;10.70;99.90;;;;;;4959167;28;89248;-35
2022/05/03 08:56:26;;;;;;;10.25;6.88;;;10.80;99.90;;;;;;4959868;28;87554;-35
2022/05/03 08:58:52;;;;;;;10.45;6.68;;;10.70;99.90;;;;;;4959101;28;90454;-33
2022/05/03 09:01:18;;;;;;;10.65;6.53;;;10.70;99.90;;;;;;4959227;28;89596;-38
2022/05/03 09:03:44;;;;;;;14.32;7.30;;;10.80;99.90;;;;;;4959873;28;88376;-33
2022/05/03 09:06:10;;;;;;;11.07;6.07;;;10.90;99.90;;;;;;4959072;28;89642;-33
2022/05/03 09:08:35;;;;;;;11.93;6.43;;;10.80;99.90;;;;;;4958542;28;90358;-39
2022/05/03 09:11:17;;;;;;;11.18;6.50;;;10.90;99.90;;;;;;4959225;28;89404;-34
2022/05/03 09:13:45;;;;;;;10.38;8.00;;;10.90;99.90;;;;;;4960206;28;89430;-34
2022/05/03 09:16:16;;;;;;;14.05;7.28;;;10.90;99.90;;;;;;4959409;28;87621;-35
2022/05/03 09:18:43;;;;;;;12.07;7.78;;;10.90;99.90;;;;;;4958581;28;90195;-37
2022/05/03 09:24:05;;;;;;;13.82;7.07;;;11.00;99.90;;;;;;4959527;28;89730;-37
2022/05/03 09:26:33;;;;;;;10.73;8.18;;;11.10;99.90;;;;;;4959369;28;89221;-37
2022/05/03 09:29:02;;;;;;;12.10;8.35;;;11.00;99.90;;;;;;4959314;28;90732;-32
2022/05/03 09:31:42;;;;;;;10.68;8.73;;;10.90;99.90;;;;;;4959201;28;90000;-34
2022/05/03 09:34:19;;;;;;;17.50;9.52;;;10.80;99.90;;;;;;4959608;28;89798;-34
2022/05/03 09:36:47;;;;;;;18.42;9.43;;;10.80;99.90;;;;;;4958703;28;89792;-32
2022/05/03 09:39:48;;;;;;;18.27;9.57;;;10.70;99.90;;;;;;4958606;28;90340;-33
2022/05/03 09:42:18;;;;;;;18.90;9.40;;;10.60;99.90;;;;;;4950719;28;89714;-33
2022/05/03 09:44:52;;;;;;;16.58;10.10;;;10.70;99.90;;;;;;4959009;28;89510;-36
2022/05/03 09:47:23;;;;;;;16.98;9.57;;;10.70;99.90;;;;;;4957484;28;88016;-35
2022/05/03 09:49:48;;;;;;;17.15;9.65;;;10.80;99.90;;;;;;4958710;28;91135;-35
2022/05/03 09:52:29;;;;;;;21.15;9.60;;;10.80;99.90;;;;;;4958705;28;89922;-34
2022/05/03 09:55:00;;;;;;;22.20;10.93;;;10.90;99.90;;;;;;4958558;28;88400;-32
2022/05/03 09:57:27;;;;;;;27.75;10.27;;;10.90;99.90;;;;;;4957117;28;87953;-35
2022/05/03 09:59:54;;;;;;;23.00;10.15;;;10.90;99.90;;;;;;4957876;28;90120;-37
2022/05/03 10:02:22;;;;;;;13.77;9.32;;;10.80;99.90;;;;;;4958291;28;89695;-36
2022/05/03 10:04:51;;;;;;;26.87;9.87;;;10.90;99.90;;;;;;4958819;28;88404;-37
2022/05/03 10:07:19;;;;;;;19.98;10.15;;;11.00;99.90;;;;;;4958556;28;88356;-32
2022/05/03 10:09:46;;;;;;;20.30;9.03;;;10.90;99.90;;;;;;4957629;28;90347;-34
2022/05/03 10:12:13;;;;;;;19.98;9.55;;;10.90;99.90;;;;;;4958894;28;89851;-35
2022/05/03 10:14:40;;;;;;;15.52;9.38;;;10.90;99.90;;;;;;4958706;28;88889;-33
2022/05/03 10:22:40;;;;;;;23.05;10.63;;;11.10;99.90;;;;;;4961131;28;89531;-33
2022/05/03 10:25:08;;;;;;;26.13;11.60;;;11.20;99.90;;;;;;4961224;28;88100;-33
2022/05/03 10:27:53;;;;;;;19.20;9.38;;;11.30;99.90;;;;;;4960903;28;88926;-35
2022/05/03 10:30:22;;;;;;;23.63;10.18;;;11.30;99.90;;;;;;4961443;28;90412;-33
2022/05/03 10:33:19;;;;;;;18.58;10.38;;;11.20;99.90;;;;;;4960215;28;89041;-34
2022/05/03 10:35:49;;;;;;;21.02;9.55;;;11.20;99.90;;;;;;4961040;28;90170;-34
2022/05/03 10:38:15;;;;;;;25.10;10.95;;;11.30;99.90;;;;;;4960918;28;89529;-32
2022/05/03 10:40:43;;;;;;;19.23;9.55;;;11.40;99.90;;;;;;4960571;28;90057;-35
2022/05/03 10:43:23;;;;;;;22.55;10.32;;;11.30;99.90;;;;;;4961690;28;89681;-32
2022/05/03 10:45:50;;;;;;;15.48;8.93;;;11.50;99.90;;;;;;4960992;28;88981;-32
2022/05/03 10:48:30;;;;;;;15.40;8.70;;;11.70;99.90;;;;;;4961074;28;89909;-33
2022/05/03 10:51:01;;;;;;;15.20;7.68;;;11.60;99.90;;;;;;4961191;28;90154;-31
2022/05/03 10:53:34;;;;;;;16.52;7.32;;;11.60;99.90;;;;;;4961461;28;90043;-36
2022/05/03 10:56:09;;;;;;;13.35;7.88;;;11.60;99.90;;;;;;4961794;28;89052;-33
2022/05/03 10:58:37;;;;;;;17.05;8.13;;;11.70;99.90;;;;;;4961569;28;89098;-37
2022/05/03 11:01:18;;;;;;;12.20;7.07;;;12.00;99.90;;;;;;4961390;28;90252;-34
2022/05/03 11:03:47;;;;;;;15.52;7.78;;;12.40;99.90;;;;;;4961289;28;89937;-36
2022/05/03 11:06:19;;;;;;;13.73;7.03;;;12.30;99.90;;;;;;4961432;28;89684;-33
2022/05/03 11:09:09;;;;;;;12.45;7.00;;;12.10;99.90;;;;;;4961211;28;89749;-33
2022/05/03 11:11:38;;;;;;;13.50;6.88;;;12.10;99.90;;;;;;4957485;28;91100;-36
2022/05/03 11:14:24;;;;;;;14.85;6.85;;;12.20;99.90;;;;;;4960982;28;89468;-33
2022/05/03 11:17:12;;;;;;;9.48;7.32;;;12.30;99.90;;;;;;4961133;28;89239;-35
2022/05/03 11:19:46;;;;;;;7.43;6.65;;;12.30;99.90;;;;;;4961111;28;88737;-35
2022/05/03 11:22:14;;;;;;;13.95;6.45;;;12.20;99.90;;;;;;4960506;28;90467;-33
2022/05/03 11:24:47;;;;;;;9.18;6.60;;;12.30;99.90;;;;;;4960420;28;89823;-37
2022/05/03 11:27:14;;;;;;;7.55;6.38;;;12.30;99.90;;;;;;4960860;28;90577;-33
2022/05/03 11:29:48;;;;;;;8.63;5.57;;;12.10;99.90;;;;;;4960259;28;90582;-32
2022/05/03 11:32:16;;;;;;;12.32;5.97;;;11.90;99.90;;;;;;4960585;28;90286;-34
2022/05/03 11:34:42;;;;;;;11.55;6.03;;;12.10;99.90;;;;;;4960299;28;89575;-34
2022/05/03 11:37:08;;;;;;;10.25;5.90;;;12.10;99.90;;;;;;4959546;28;88943;-36
2022/05/03 11:39:38;;;;;;;14.55;6.57;;;12.40;99.90;;;;;;4960834;28;87788;-37
2022/05/03 11:42:06;;;;;;;13.18;5.95;;;12.30;99.90;;;;;;4960652;28;90136;-37
2022/05/03 11:44:32;;;;;;;14.23;6.32;;;12.30;99.90;;;;;;4960683;28;89601;-32
2022/05/03 11:47:02;;;;;;;14.27;6.50;;;12.40;99.90;;;;;;4959938;28;88339;-36
2022/05/03 11:49:28;;;;;;;14.98;6.68;;;12.20;99.90;;;;;;4960494;28;90110;-33
2022/05/03 11:57:25;;;;;;;11.05;5.40;;;12.50;99.90;;;;;;4960945;28;89532;-36
2022/05/03 11:59:55;;;;;;;10.27;5.13;;;12.40;99.90;;;;;;4960138;28;89050;-37
2022/05/03 12:02:33;;;;;;;10.73;5.57;;;12.50;99.90;;;;;;4960536;28;90394;-33
2022/05/03 12:05:19;;;;;;;13.80;6.32;;;12.70;99.90;;;;;;4960158;28;89931;-34
2022/05/03 12:07:53;;;;;;;14.05;6.07;;;12.70;99.90;;;;;;4960423;28;88515;-32
2022/05/03 12:10:21;;;;;;;9.13;5.72;;;12.50;99.90;;;;;;4961087;28;88467;-34
2022/05/03 12:13:02;;;;;;;;;;;12.60;99.90;;;;;;4960057;28;90139;-34
2022/05/03 12:15:28;;;;;;;15.68;5.10;;;12.70;99.90;;;;;;4961376;28;89567;-34
2022/05/03 12:18:00;;;;;;;8.13;4.57;;;12.90;99.90;;;;;;4960132;28;88202;-35
2022/05/03 12:20:39;;;;;;;10.38;5.15;;;12.90;99.90;;;;;;4960599;28;89460;-37
2022/05/03 12:23:17;;;;;;;12.85;5.85;;;12.80;99.90;;;;;;4959860;28;91061;-36
2022/05/03 12:25:48;;;;;;;9.85;5.32;;;12.80;99.90;;;;;;4959802;28;88944;-35
2022/05/03 12:28:14;;;;;;;13.27;5.97;;;12.70;99.90;;;;;;4959876;28;89999;-35
2022/05/03 12:30:40;;;;;;;13.73;5.82;;;12.70;99.90;;;;;;4959958;28;89731;-33
2022/05/03 12:33:14;;;;;;;13.43;5.90;;;12.90;99.90;;;;;;4957742;28;90230;-35
2022/05/03 12:35:43;;;;;;;9.35;5.53;;;13.10;99.90;;;;;;4959802;28;89735;-32
2022/05/03 12:38:17;;;;;;;10.27;5.70;;;12.90;99.90;;;;;;4998611;22;89867;-32
2022/05/03 12:40:48;;;;;;;12.40;5.38;;;12.80;99.90;;;;;;4979488;28;88994;-33
2022/05/03 12:43:18;;;;;;;16.20;6.53;;;12.80;99.90;;;;;;4978236;28;90455;-36
2022/05/03 12:46:01;;;;;;;9.45;5.35;;;12.80;99.90;;;;;;4978795;28;89687;-36
2022/05/03 12:48:28;;;;;;;5.60;4.75;;;12.80;99.90;;;;;;4979423;28;89140;-37
2022/05/03 12:50:56;;;;;;;14.00;4.45;;;13.00;99.90;;;;;;4979167;28;89222;-35
2022/05/03 12:53:24;;;;;;;10.80;5.40;;;12.90;99.90;;;;;;4978933;28;88967;-34
2022/05/03 12:55:50;;;;;;;14.87;4.73;;;12.70;99.90;;;;;;4978916;28;89714;-36
2022/05/03 12:58:22;;;;;;;7.60;4.85;;;12.90;99.90;;;;;;4979670;28;88351;-34
2022/05/03 13:00:57;;;;;;;8.80;4.15;;;13.00;99.90;;;;;;4979431;28;88919;-36
2022/05/03 13:03:24;;;;;;;15.82;4.55;;;13.00;99.90;;;;;;4979136;28;89648;-36
2022/05/03 13:05:50;;;;;;;9.10;4.68;;;13.00;99.90;;;;;;4978816;28;89664;-34
2022/05/03 13:08:17;;;;;;;9.90;4.53;;;13.30;99.90;;;;;;4979523;28;88907;-34
2022/05/03 13:10:43;;;;;;;9.80;5.10;;;13.30;99.90;;;;;;4979573;28;89841;-33
2022/05/03 13:13:10;;;;;;;8.40;4.13;;;13.50;99.90;;;;;;4978717;28;90798;-34
2022/05/03 13:15:37;;;;;;;8.50;4.60;;;13.70;99.90;;;;;;4978873;28;89604;-32
2022/05/03 13:18:03;;;;;;;7.07;4.28;;;14.00;99.90;;;;;;4979265;28;88798;-33
2022/05/03 13:20:29;;;;;;;8.95;3.63;;;13.70;99.90;;;;;;4977674;28;88470;-35
2022/05/03 13:22:55;;;;;;;8.38;4.32;;;13.50;99.90;;;;;;4978563;28;90323;-35
2022/05/03 13:25:22;;;;;;;5.35;3.60;;;13.40;99.90;;;;;;4978471;28;89706;-36
2022/05/03 13:27:48;;;;;;;13.30;4.40;;;13.20;99.90;;;;;;4978261;28;89753;-33
2022/05/03 13:30:15;;;;;;;5.30;3.35;;;13.30;99.90;;;;;;4978922;28;88185;-34